createdAt,value
2022-08-12T00:00:59.508Z,5.40
2022-08-12T00:02:03.810Z,3.90
2022-08-12T00:03:00.766Z,4.20
2022-08-12T00:03:59.467Z,3.40
2022-08-12T00:04:59.461Z,3.50
2022-08-12T00:06:05.061Z,3.50
2022-08-12T00:07:00.505Z,3.30
2022-08-12T00:07:59.417Z,3.40
2022-08-12T00:08:59.513Z,4.10
2022-08-12T00:09:59.420Z,3.40
2022-08-12T00:10:59.375Z,4.40
2022-08-12T00:12:00.445Z,5.20
2022-08-12T00:12:59.351Z,4.90
2022-08-12T00:13:59.360Z,6.40
2022-08-12T00:14:59.342Z,5.70
2022-08-12T00:15:59.348Z,3.90
2022-08-12T00:16:59.354Z,3.30
2022-08-12T00:17:59.364Z,3.60
2022-08-12T00:18:59.386Z,3.80
2022-08-12T00:19:59.275Z,3.80
2022-08-12T00:20:59.279Z,4.00
2022-08-12T00:21:59.329Z,3.10
2022-08-12T00:23:00.154Z,4.40
2022-08-12T00:23:59.299Z,4.00
2022-08-12T00:24:59.230Z,3.50
2022-08-12T00:26:21.671Z,3.60
2022-08-12T00:27:00.204Z,3.50
2022-08-12T00:27:59.187Z,3.50
2022-08-12T00:28:59.233Z,3.50
2022-08-12T00:29:59.180Z,4.20
2022-08-12T00:30:59.190Z,5.30
2022-08-12T00:32:00.490Z,3.20
2022-08-12T00:32:59.455Z,4.70
2022-08-12T00:33:59.168Z,4.30
2022-08-12T00:34:59.174Z,3.70
2022-08-12T00:35:59.103Z,4.20
2022-08-12T00:37:03.939Z,3.40
2022-08-12T00:38:00.077Z,4.10
2022-08-12T00:38:59.089Z,3.50
2022-08-12T00:39:59.108Z,3.70
2022-08-12T00:40:59.103Z,3.90
2022-08-12T00:41:59.107Z,5.20
2022-08-12T00:42:59.023Z,4.50
2022-08-12T00:43:59.019Z,3.90
2022-08-12T00:44:58.999Z,3.20
2022-08-12T00:45:58.995Z,3.60
2022-08-12T00:46:59.039Z,4.00
2022-08-12T00:47:58.979Z,3.30
2022-08-12T00:48:58.964Z,3.60
2022-08-12T00:49:58.959Z,4.50
2022-08-12T00:50:58.937Z,3.70
2022-08-12T00:51:58.986Z,3.40
2022-08-12T00:52:58.995Z,3.60
2022-08-12T00:53:58.919Z,3.60
2022-08-12T00:54:58.905Z,3.30
2022-08-12T00:55:58.898Z,3.20
2022-08-12T00:56:58.876Z,3.70
2022-08-12T00:57:58.883Z,3.40
2022-08-12T00:58:58.877Z,4.20
2022-08-12T00:59:58.839Z,3.40
2022-08-12T01:00:58.900Z,4.50
2022-08-12T01:02:10.478Z,3.60
2022-08-12T01:02:59.868Z,3.40
2022-08-12T01:03:59.572Z,3.30
2022-08-12T01:04:58.793Z,3.90
2022-08-12T01:06:06.709Z,4.10
2022-08-12T01:06:58.783Z,3.50
2022-08-12T01:07:58.789Z,3.50
2022-08-12T01:08:58.752Z,4.00
2022-08-12T01:09:58.724Z,3.40
2022-08-12T01:10:58.733Z,4.00
2022-08-12T01:11:58.712Z,4.40
2022-08-12T01:13:18.503Z,4.10
2022-08-12T01:13:59.740Z,3.30
2022-08-12T01:14:58.689Z,3.40
2022-08-12T01:15:58.730Z,4.10
2022-08-12T01:16:58.645Z,3.40
2022-08-12T01:17:58.657Z,3.50
2022-08-12T01:18:58.659Z,3.70
2022-08-12T01:19:58.627Z,3.90
2022-08-12T01:20:58.598Z,3.40
2022-08-12T01:21:58.629Z,3.70
2022-08-12T01:22:58.584Z,5.70
2022-08-12T01:23:58.617Z,3.50
2022-08-12T01:24:58.561Z,3.70
2022-08-12T01:25:58.555Z,4.50
2022-08-12T01:26:58.533Z,3.70
2022-08-12T01:27:58.544Z,3.80
2022-08-12T01:28:58.810Z,4.70
2022-08-12T01:29:58.524Z,3.40
2022-08-12T01:30:58.499Z,3.40
2022-08-12T01:31:58.536Z,3.40
2022-08-12T01:32:58.472Z,3.20
2022-08-12T01:33:58.457Z,3.80
2022-08-12T01:34:58.464Z,3.80
2022-08-12T01:36:08.486Z,3.80
2022-08-12T01:36:59.466Z,3.70
2022-08-12T01:37:58.415Z,3.50
2022-08-12T01:38:58.435Z,3.50
2022-08-12T01:40:36.098Z,3.30
2022-08-12T01:40:59.483Z,3.20
2022-08-12T01:41:58.371Z,3.40
2022-08-12T01:42:58.377Z,5.60
2022-08-12T01:43:58.347Z,3.40
2022-08-12T01:44:58.356Z,4.60
2022-08-12T01:45:58.335Z,3.50
2022-08-12T01:46:58.343Z,3.40
2022-08-12T01:47:58.339Z,4.10
2022-08-12T01:48:58.307Z,3.40
2022-08-12T01:49:58.286Z,3.40
2022-08-12T01:51:00.631Z,3.30
2022-08-12T01:52:20.600Z,4.10
2022-08-12T01:52:59.278Z,3.50
2022-08-12T01:53:58.282Z,3.70
2022-08-12T01:54:58.220Z,5.40
2022-08-12T01:55:58.233Z,4.00
2022-08-12T01:56:58.260Z,3.30
2022-08-12T01:58:01.171Z,3.60
2022-08-12T01:58:58.236Z,3.50
2022-08-12T01:59:58.198Z,3.10
2022-08-12T02:00:58.210Z,3.80
2022-08-12T02:01:58.192Z,3.20
2022-08-12T02:02:58.145Z,3.80
2022-08-12T02:03:58.147Z,3.30
2022-08-12T02:04:58.150Z,3.90
2022-08-12T02:05:58.161Z,3.40
2022-08-12T02:06:58.099Z,4.00
2022-08-12T02:07:58.078Z,3.60
2022-08-12T02:08:58.085Z,3.60
2022-08-12T02:09:58.098Z,5.20
2022-08-12T02:10:58.059Z,3.30
2022-08-12T02:11:58.914Z,3.40
2022-08-12T02:12:59.042Z,3.40
2022-08-12T02:13:58.018Z,3.80
2022-08-12T02:14:58.076Z,3.30
2022-08-12T02:15:58.020Z,3.60
2022-08-12T02:16:57.990Z,4.10
2022-08-12T02:17:57.966Z,3.50
2022-08-12T02:18:58.000Z,4.60
2022-08-12T02:19:58.008Z,4.00
2022-08-12T02:20:57.991Z,3.20
2022-08-12T02:21:57.962Z,3.70
2022-08-12T02:22:57.928Z,3.60
2022-08-12T02:23:58.499Z,4.40
2022-08-12T02:24:57.889Z,3.50
2022-08-12T02:25:57.893Z,3.30
2022-08-12T02:26:57.956Z,3.70
2022-08-12T02:27:57.913Z,3.90
2022-08-12T02:28:57.844Z,4.00
2022-08-12T02:29:57.879Z,3.30
2022-08-12T02:30:57.833Z,3.40
2022-08-12T02:31:57.837Z,3.30
2022-08-12T02:32:57.994Z,3.70
2022-08-12T02:33:57.802Z,5.40
2022-08-12T02:34:57.778Z,3.30
2022-08-12T02:35:57.769Z,3.30
2022-08-12T02:36:57.780Z,3.60
2022-08-12T02:37:58.759Z,3.40
2022-08-12T02:38:57.770Z,4.70
2022-08-12T02:39:57.766Z,3.40
2022-08-12T02:40:57.720Z,3.20
2022-08-12T02:41:57.831Z,3.40
2022-08-12T02:42:57.709Z,4.80
2022-08-12T02:43:57.704Z,7.60
2022-08-12T02:44:57.717Z,3.50
2022-08-12T02:45:57.667Z,3.50
2022-08-12T02:46:58.045Z,3.60
2022-08-12T02:48:00.178Z,3.80
2022-08-12T02:48:57.636Z,3.40
2022-08-12T02:49:57.620Z,3.90
2022-08-12T02:50:57.609Z,3.50
2022-08-12T02:51:57.587Z,3.50
2022-08-12T02:52:57.670Z,3.40
2022-08-12T02:54:04.494Z,5.40
2022-08-12T02:54:58.571Z,3.90
2022-08-12T02:55:57.594Z,3.50
2022-08-12T02:56:57.552Z,4.50
2022-08-12T02:57:57.557Z,5.40
2022-08-12T02:58:57.512Z,4.30
2022-08-12T02:59:57.527Z,3.50
2022-08-12T03:00:57.627Z,5.50
2022-08-12T03:01:57.499Z,3.70
2022-08-12T03:02:57.528Z,4.50
2022-08-12T03:03:57.476Z,3.50
2022-08-12T03:04:57.452Z,3.80
2022-08-12T03:05:57.466Z,3.60
2022-08-12T03:06:57.425Z,3.30
2022-08-12T03:07:59.985Z,3.80
2022-08-12T03:08:57.467Z,3.70
2022-08-12T03:10:04.815Z,3.50
2022-08-12T03:10:58.408Z,4.00
2022-08-12T03:11:57.388Z,3.20
2022-08-12T03:12:57.405Z,4.40
2022-08-12T03:13:57.358Z,7.10
2022-08-12T03:14:57.382Z,3.30
2022-08-12T03:15:57.323Z,4.40
2022-08-12T03:16:57.334Z,4.90
2022-08-12T03:18:26.535Z,3.70
2022-08-12T03:18:58.289Z,4.10
2022-08-12T03:20:10.044Z,3.40
2022-08-12T03:20:58.287Z,3.50
2022-08-12T03:22:08.932Z,3.50
2022-08-12T03:22:58.286Z,3.90
2022-08-12T03:23:57.289Z,4.40
2022-08-12T03:24:57.244Z,3.90
2022-08-12T03:25:57.214Z,3.70
2022-08-12T03:27:00.182Z,4.00
2022-08-12T03:27:57.256Z,3.70
2022-08-12T03:28:57.206Z,4.40
2022-08-12T03:29:57.208Z,3.40
2022-08-12T03:30:57.221Z,4.30
2022-08-12T03:31:57.150Z,4.20
2022-08-12T03:32:57.142Z,3.60
2022-08-12T03:34:01.482Z,5.70
2022-08-12T03:34:58.127Z,4.10
2022-08-12T03:35:57.114Z,3.90
2022-08-12T03:36:57.088Z,3.80
2022-08-12T03:37:57.100Z,3.50
2022-08-12T03:38:57.078Z,3.60
2022-08-12T03:39:57.243Z,3.60
2022-08-12T03:40:57.054Z,3.30
2022-08-12T03:41:58.128Z,3.60
2022-08-12T03:42:57.060Z,3.80
2022-08-12T03:43:57.007Z,5.10
2022-08-12T03:44:57.018Z,3.50
2022-08-12T03:45:57.019Z,4.60
2022-08-12T03:46:57.026Z,4.60
2022-08-12T03:47:56.995Z,3.60
2022-08-12T03:48:56.962Z,3.70
2022-08-12T03:49:56.995Z,3.50
2022-08-12T03:50:56.946Z,3.70
2022-08-12T03:51:56.951Z,3.50
2022-08-12T03:52:56.930Z,3.20
2022-08-12T03:53:56.895Z,3.90
2022-08-12T03:54:56.904Z,3.60
2022-08-12T03:55:56.887Z,4.90
2022-08-12T03:56:56.879Z,3.70
2022-08-12T03:57:56.922Z,4.00
2022-08-12T03:58:56.902Z,4.10
2022-08-12T03:59:56.833Z,4.10
2022-08-12T04:00:56.867Z,3.90
2022-08-12T04:01:56.825Z,4.40
2022-08-12T04:02:56.817Z,4.10
2022-08-12T04:03:56.826Z,4.90
2022-08-12T04:04:56.835Z,3.90
2022-08-12T04:05:56.975Z,4.20
2022-08-12T04:06:56.757Z,3.70
2022-08-12T04:07:58.480Z,4.90
2022-08-12T04:08:56.730Z,4.90
2022-08-12T04:09:56.771Z,3.90
2022-08-12T04:10:57.512Z,4.40
2022-08-12T04:11:56.712Z,5.30
2022-08-12T04:12:56.721Z,5.80
2022-08-12T04:13:56.692Z,5.00
2022-08-12T04:14:56.668Z,4.10
2022-08-12T04:15:56.671Z,4.90
2022-08-12T04:16:56.649Z,4.80
2022-08-12T04:18:06.133Z,4.40
2022-08-12T04:18:57.618Z,5.60
2022-08-12T04:19:56.633Z,4.90
2022-08-12T04:20:56.645Z,4.60
2022-08-12T04:22:02.243Z,5.00
2022-08-12T04:22:57.585Z,4.80
2022-08-12T04:23:56.567Z,4.10
2022-08-12T04:24:56.582Z,4.80
2022-08-12T04:25:56.583Z,5.40
2022-08-12T04:26:56.580Z,4.90
2022-08-12T04:27:56.515Z,5.20
2022-08-12T04:28:57.581Z,5.10
2022-08-12T04:30:21.339Z,4.80
2022-08-12T04:30:57.499Z,5.90
2022-08-12T04:31:56.480Z,5.20
2022-08-12T04:32:56.488Z,5.00
2022-08-12T04:33:56.488Z,4.90
2022-08-12T04:34:56.499Z,5.10
2022-08-12T04:35:56.446Z,5.40
2022-08-12T04:36:56.454Z,5.30
2022-08-12T04:37:59.364Z,5.40
2022-08-12T04:38:59.539Z,4.80
2022-08-12T04:39:56.452Z,4.60
2022-08-12T04:40:56.381Z,6.10
2022-08-12T04:41:58.498Z,5.20
2022-08-12T04:42:56.392Z,5.10
2022-08-12T04:44:02.157Z,5.30
2022-08-12T04:44:57.328Z,6.70
2022-08-12T04:45:56.317Z,5.20
2022-08-12T04:46:56.318Z,5.30
2022-08-12T04:47:56.326Z,7.00
2022-08-12T04:48:56.326Z,6.60
2022-08-12T04:49:56.297Z,5.30
2022-08-12T04:50:56.268Z,5.40
2022-08-12T04:51:58.941Z,5.20
2022-08-12T04:52:56.244Z,5.20
2022-08-12T04:53:57.500Z,6.00
2022-08-12T04:54:56.265Z,5.10
2022-08-12T04:55:56.203Z,5.10
2022-08-12T04:57:04.234Z,6.60
2022-08-12T04:57:57.206Z,5.30
2022-08-12T04:58:56.247Z,5.50
2022-08-12T04:59:57.011Z,5.70
2022-08-12T05:00:56.156Z,5.70
2022-08-12T05:01:56.254Z,6.00
2022-08-12T05:02:56.238Z,5.80
2022-08-12T05:03:56.131Z,6.80
2022-08-12T05:04:56.164Z,6.40
2022-08-12T05:05:56.138Z,5.40
2022-08-12T05:06:56.098Z,5.40
2022-08-12T05:07:56.146Z,5.90
2022-08-12T05:08:56.130Z,5.30
2022-08-12T05:10:00.962Z,5.50
2022-08-12T05:10:57.092Z,5.50
2022-08-12T05:11:56.084Z,5.60
2022-08-12T05:12:56.039Z,5.40
2022-08-12T05:13:56.005Z,5.30
2022-08-12T05:14:56.007Z,5.90
2022-08-12T05:16:04.740Z,6.40
2022-08-12T05:16:56.966Z,6.00
2022-08-12T05:17:56.263Z,5.50
2022-08-12T05:18:55.947Z,6.40
2022-08-12T05:19:57.284Z,5.60
2022-08-12T05:20:55.942Z,5.40
2022-08-12T05:21:55.950Z,5.30
2022-08-12T05:22:56.932Z,5.20
2022-08-12T05:23:55.927Z,5.20
2022-08-12T05:24:55.911Z,4.90
2022-08-12T05:25:55.877Z,4.90
2022-08-12T05:26:55.887Z,5.50
2022-08-12T05:27:59.021Z,5.10
2022-08-12T05:28:55.886Z,5.10
2022-08-12T05:30:06.302Z,5.70
2022-08-12T05:30:56.838Z,4.80
2022-08-12T05:31:55.816Z,5.00
2022-08-12T05:32:59.068Z,4.60
2022-08-12T05:33:55.832Z,4.80
2022-08-12T05:34:55.797Z,5.10
2022-08-12T05:35:55.779Z,5.00
2022-08-12T05:36:55.745Z,5.10
2022-08-12T05:37:55.753Z,5.00
2022-08-12T05:38:55.715Z,5.70
2022-08-12T05:39:55.801Z,4.60
2022-08-12T05:40:55.717Z,5.20
2022-08-12T05:41:55.730Z,5.00
2022-08-12T05:42:55.683Z,5.00
2022-08-12T05:43:55.691Z,4.90
2022-08-12T05:44:55.687Z,5.60
2022-08-12T05:45:55.664Z,5.00
2022-08-12T05:46:55.632Z,7.10
2022-08-12T05:47:55.645Z,4.80
2022-08-12T05:48:55.627Z,4.70
2022-08-12T05:49:55.634Z,4.90
2022-08-12T05:50:55.600Z,5.60
2022-08-12T05:51:55.582Z,4.60
2022-08-12T05:52:55.607Z,4.50
2022-08-12T05:53:55.556Z,4.50
2022-08-12T05:54:57.893Z,4.40
2022-08-12T05:55:55.565Z,4.80
2022-08-12T05:56:55.568Z,4.40
2022-08-12T05:57:55.582Z,4.10
2022-08-12T05:58:55.514Z,6.10
2022-08-12T05:59:55.495Z,6.30
2022-08-12T06:00:55.495Z,7.40
2022-08-12T06:02:09.349Z,5.40
2022-08-12T06:02:56.592Z,5.20
2022-08-12T06:03:55.444Z,4.70
2022-08-12T06:04:55.439Z,6.10
2022-08-12T06:05:55.952Z,3.90
2022-08-12T06:06:55.442Z,3.90
2022-08-12T06:08:01.879Z,4.10
2022-08-12T06:08:56.423Z,4.40
2022-08-12T06:09:55.396Z,4.50
2022-08-12T06:10:55.413Z,6.50
2022-08-12T06:12:05.405Z,4.60
2022-08-12T06:12:56.362Z,5.10
2022-08-12T06:13:55.344Z,7.30
2022-08-12T06:14:55.329Z,4.40
2022-08-12T06:15:55.358Z,4.80
2022-08-12T06:16:55.314Z,5.70
2022-08-12T06:17:55.314Z,6.30
2022-08-12T06:18:55.275Z,4.60
2022-08-12T06:20:26.593Z,4.30
2022-08-12T06:20:56.291Z,3.40
2022-08-12T06:21:55.298Z,5.10
2022-08-12T06:22:55.320Z,4.20
2022-08-12T06:23:55.247Z,6.00
2022-08-12T06:24:55.214Z,4.20
2022-08-12T06:25:55.203Z,5.80
2022-08-12T06:26:55.218Z,3.80
2022-08-12T06:28:06.273Z,4.50
2022-08-12T06:28:56.562Z,3.70
2022-08-12T06:30:10.105Z,3.00
2022-08-12T06:31:24.806Z,5.20
2022-08-12T06:31:56.133Z,3.90
2022-08-12T06:33:11.283Z,3.50
2022-08-12T06:35:21.724Z,4.40
2022-08-12T06:35:27.171Z,3.10
2022-08-12T06:35:57.538Z,4.00
2022-08-12T06:36:55.091Z,4.10
2022-08-12T06:37:56.792Z,3.00
2022-08-12T06:38:55.053Z,3.20
2022-08-12T06:39:55.874Z,2.90
2022-08-12T06:40:55.069Z,3.70
2022-08-12T06:42:02.705Z,3.20
2022-08-12T06:42:56.009Z,3.40
2022-08-12T06:44:05.478Z,3.00
2022-08-12T06:44:56.010Z,4.60
2022-08-12T06:45:55.028Z,4.80
2022-08-12T06:46:54.993Z,3.00
2022-08-12T06:47:54.963Z,3.50
2022-08-12T06:48:54.941Z,6.10
2022-08-12T06:50:44.765Z,7.50
2022-08-12T06:51:54.429Z,4.50
2022-08-12T06:52:45.759Z,3.10
2022-08-12T06:53:44.678Z,4.00
2022-08-12T06:54:44.687Z,4.20
2022-08-12T06:55:57.943Z,4.30
2022-08-12T06:57:03.739Z,4.60
2022-08-12T06:58:06.551Z,4.10
2022-08-12T06:58:45.634Z,3.50
2022-08-12T06:59:44.619Z,3.40
2022-08-12T07:00:44.689Z,4.10
2022-08-12T07:01:50.731Z,3.00
2022-08-12T07:02:45.622Z,4.40
2022-08-12T07:03:44.564Z,3.40
2022-08-12T07:04:44.556Z,4.10
2022-08-12T07:05:44.949Z,3.60
2022-08-12T07:06:44.536Z,4.10
2022-08-12T07:07:44.531Z,7.60
2022-08-12T07:08:44.558Z,4.60
2022-08-12T07:10:00.159Z,4.20
2022-08-12T07:10:45.518Z,3.30
2022-08-12T07:11:44.503Z,3.00
2022-08-12T07:12:45.498Z,3.30
2022-08-12T07:14:11.481Z,5.10
2022-08-12T07:14:48.781Z,5.20
2022-08-12T07:15:44.442Z,3.80
2022-08-12T07:16:44.425Z,4.00
2022-08-12T07:17:44.410Z,2.90
2022-08-12T07:18:44.418Z,3.40
2022-08-12T07:19:45.522Z,5.00
2022-08-12T07:20:53.284Z,3.00
2022-08-12T07:22:00.104Z,3.10
2022-08-12T07:22:45.362Z,3.60
2022-08-12T07:23:44.379Z,3.00
2022-08-12T07:24:44.353Z,3.50
2022-08-12T07:25:44.347Z,5.90
2022-08-12T07:26:44.511Z,3.80
2022-08-12T07:27:44.328Z,4.40
2022-08-12T07:28:44.302Z,3.50
2022-08-12T07:30:04.032Z,4.20
2022-08-12T07:30:45.262Z,3.50
2022-08-12T07:31:44.261Z,3.70
2022-08-12T07:32:44.274Z,3.00
2022-08-12T07:33:44.261Z,2.80
2022-08-12T07:34:44.219Z,2.90
2022-08-12T07:35:44.222Z,3.20
2022-08-12T07:36:44.225Z,3.90
2022-08-12T07:37:44.197Z,6.80
2022-08-12T07:38:44.174Z,4.10
2022-08-12T07:39:51.027Z,4.00
2022-08-12T07:40:45.178Z,3.60
2022-08-12T07:41:44.148Z,5.50
2022-08-12T07:42:44.167Z,4.80
2022-08-12T07:43:44.128Z,4.60
2022-08-12T07:44:44.108Z,3.00
2022-08-12T07:45:44.109Z,4.20
2022-08-12T07:46:44.118Z,3.60
2022-08-12T07:47:44.088Z,5.00
2022-08-12T07:48:44.062Z,4.00
2022-08-12T07:50:05.461Z,4.00
2022-08-12T07:50:45.050Z,5.80
2022-08-12T07:51:44.060Z,3.20
2022-08-12T07:52:44.038Z,3.70
2022-08-12T07:54:00.367Z,4.10
2022-08-12T07:54:44.994Z,3.00
2022-08-12T07:55:43.990Z,3.30
2022-08-12T07:56:43.987Z,4.60
2022-08-12T07:57:43.996Z,4.20
2022-08-12T07:58:47.012Z,3.60
2022-08-12T07:59:43.980Z,4.90
2022-08-12T08:00:43.932Z,3.30
2022-08-12T08:01:44.011Z,3.70
2022-08-12T08:02:43.929Z,3.20
2022-08-12T08:03:47.615Z,4.40
2022-08-12T08:04:44.888Z,4.50
2022-08-12T08:05:43.903Z,3.80
2022-08-12T08:06:43.863Z,4.20
2022-08-12T08:07:43.853Z,4.70
2022-08-12T08:08:43.862Z,3.30
2022-08-12T08:09:43.842Z,3.20
2022-08-12T08:10:43.852Z,3.40
2022-08-12T08:11:43.807Z,2.60
2022-08-12T08:12:43.797Z,3.50
2022-08-12T08:13:43.831Z,2.90
2022-08-12T08:14:43.775Z,3.40
2022-08-12T08:16:02.480Z,4.20
2022-08-12T08:16:44.774Z,2.90
2022-08-12T08:17:43.740Z,4.00
2022-08-12T08:18:43.731Z,3.10
2022-08-12T08:20:02.820Z,3.20
2022-08-12T08:20:44.723Z,4.50
2022-08-12T08:21:43.709Z,5.20
2022-08-12T08:22:43.837Z,4.10
2022-08-12T08:23:43.695Z,3.80
2022-08-12T08:24:43.664Z,3.50
2022-08-12T08:25:43.671Z,6.40
2022-08-12T08:26:43.655Z,4.40
2022-08-12T08:27:43.651Z,3.70
2022-08-12T08:28:43.619Z,4.40
2022-08-12T08:29:43.628Z,3.50
2022-08-12T08:30:43.614Z,4.70
2022-08-12T08:31:45.482Z,5.70
2022-08-12T08:32:43.592Z,4.80
2022-08-12T08:34:05.014Z,4.70
2022-08-12T08:34:54.540Z,3.80
2022-08-12T08:35:46.943Z,6.20
2022-08-12T08:36:43.540Z,2.70
2022-08-12T08:37:43.530Z,4.60
2022-08-12T08:38:43.532Z,3.30
2022-08-12T08:39:44.647Z,6.60
2022-08-12T08:40:43.484Z,3.00
2022-08-12T08:42:17.303Z,7.30
2022-08-12T08:42:49.410Z,4.30
2022-08-12T08:43:44.947Z,3.70
2022-08-12T08:44:43.471Z,4.30
2022-08-12T08:45:43.465Z,4.70
2022-08-12T08:46:43.418Z,4.30
2022-08-12T08:47:43.439Z,4.40
2022-08-12T08:48:43.395Z,3.00
2022-08-12T08:49:43.413Z,3.60
2022-08-12T08:50:43.371Z,4.40
2022-08-12T08:51:43.360Z,3.90
2022-08-12T08:52:43.469Z,4.60
2022-08-12T08:53:43.357Z,3.30
2022-08-12T08:54:44.356Z,4.00
2022-08-12T08:56:04.017Z,3.60
2022-08-12T08:56:44.307Z,2.90
2022-08-12T08:57:44.761Z,5.30
2022-08-12T08:58:43.282Z,3.40
2022-08-12T08:59:43.289Z,3.50
2022-08-12T09:00:44.306Z,2.50
2022-08-12T09:01:44.698Z,3.20
2022-08-12T09:05:09.924Z,4.00
2022-08-12T09:05:11.235Z,2.90
2022-08-12T09:06:02.275Z,3.20
2022-08-12T09:06:53.412Z,4.80
2022-08-12T09:07:59.417Z,3.90
2022-08-12T09:08:44.172Z,3.60
2022-08-12T09:10:02.741Z,3.30
2022-08-12T09:10:45.027Z,4.30
2022-08-12T09:12:06.450Z,3.30
2022-08-12T09:12:44.170Z,3.70
2022-08-12T09:14:12.075Z,3.40
2022-08-12T09:14:47.105Z,5.10
2022-08-12T09:15:44.092Z,2.60
2022-08-12T09:16:44.100Z,3.00
2022-08-12T09:17:44.069Z,3.10
2022-08-12T09:18:43.104Z,3.80
2022-08-12T09:19:43.084Z,3.50
2022-08-12T09:20:43.040Z,5.40
2022-08-12T09:21:54.707Z,2.40
2022-08-12T09:22:48.986Z,3.60
2022-08-12T09:24:43.990Z,3.40
2022-08-12T09:25:43.022Z,3.50
2022-08-12T09:26:46.399Z,2.70
2022-08-12T09:28:43.967Z,4.70
2022-08-12T09:30:11.490Z,3.00
2022-08-12T09:30:43.925Z,3.00
2022-08-12T09:32:03.969Z,5.10
2022-08-12T09:33:05.288Z,5.00
2022-08-12T09:34:26.179Z,3.40
2022-08-12T09:34:44.258Z,3.60
2022-08-12T09:35:43.871Z,3.00
2022-08-12T09:37:00.118Z,3.40
2022-08-12T09:37:58.366Z,3.80
2022-08-12T09:38:58.866Z,3.40
2022-08-12T09:40:08.911Z,4.10
2022-08-12T09:42:07.437Z,6.30
2022-08-12T09:42:33.120Z,3.90
2022-08-12T09:42:53.103Z,3.40
2022-08-12T09:43:53.428Z,3.10
2022-08-12T09:44:43.847Z,2.90
2022-08-12T09:46:06.281Z,4.90
2022-08-12T09:46:43.871Z,4.40
2022-08-12T09:47:42.763Z,4.00
2022-08-12T09:48:55.966Z,3.70
2022-08-12T09:49:43.735Z,3.90
2022-08-12T09:50:42.730Z,4.60
2022-08-12T09:51:44.462Z,4.10
2022-08-12T09:52:42.809Z,5.30
2022-08-12T09:53:42.671Z,3.40
2022-08-12T09:54:43.215Z,4.30
2022-08-12T09:56:05.512Z,3.10
2022-08-12T09:56:59.108Z,3.80
2022-08-12T09:58:44.820Z,3.60
2022-08-12T09:58:54.055Z,2.70
2022-08-12T10:00:17.031Z,2.80
2022-08-12T10:00:52.076Z,6.60
2022-08-12T10:02:41.813Z,3.40
2022-08-12T10:02:50.100Z,4.40
2022-08-12T10:04:03.655Z,2.50
2022-08-12T10:04:51.660Z,3.50
2022-08-12T10:06:26.394Z,3.60
2022-08-12T10:06:55.301Z,2.20
2022-08-12T10:07:43.564Z,3.70
2022-08-12T10:08:42.510Z,2.60
2022-08-12T10:09:58.542Z,2.50
2022-08-12T10:10:43.485Z,4.20
2022-08-12T10:12:10.101Z,4.20
2022-08-12T10:12:43.653Z,3.10
2022-08-12T10:13:43.466Z,4.40
2022-08-12T10:14:50.479Z,2.90
2022-08-12T10:16:01.453Z,2.70
2022-08-12T10:16:43.436Z,3.30
2022-08-12T10:17:42.424Z,2.90
2022-08-12T10:18:51.872Z,3.50
2022-08-12T10:19:51.649Z,5.80
2022-08-12T10:20:43.378Z,2.90
2022-08-12T10:21:42.493Z,3.10
2022-08-12T10:22:42.399Z,2.80
2022-08-12T10:23:46.038Z,3.00
2022-08-12T10:24:43.337Z,3.20
2022-08-12T10:26:34.605Z,2.70
2022-08-12T10:26:44.589Z,3.10
2022-08-12T10:28:05.370Z,3.70
2022-08-12T10:29:02.109Z,3.90
2022-08-12T10:30:37.438Z,4.10
2022-08-12T10:30:43.944Z,2.60
2022-08-12T10:32:19.628Z,3.20
2022-08-12T10:32:47.192Z,3.50
2022-08-12T10:33:43.827Z,3.10
2022-08-12T10:34:53.192Z,3.60
2022-08-12T10:35:43.240Z,2.20
2022-08-12T10:36:43.130Z,3.20
2022-08-12T10:38:37.215Z,2.80
2022-08-12T10:38:44.194Z,3.50
2022-08-12T10:40:01.231Z,3.20
2022-08-12T10:40:43.208Z,3.40
2022-08-12T10:41:57.743Z,3.10
2022-08-12T10:42:46.326Z,2.90
2022-08-12T10:43:56.416Z,2.80
2022-08-12T10:44:43.111Z,2.80
2022-08-12T10:45:42.152Z,3.80
2022-08-12T10:46:42.116Z,2.70
2022-08-12T10:48:20.353Z,3.60
2022-08-12T10:48:43.098Z,3.30
2022-08-12T10:50:03.556Z,3.10
2022-08-12T10:51:02.304Z,2.30
2022-08-12T10:52:02.982Z,2.30
2022-08-12T10:52:43.062Z,2.30
2022-08-12T10:53:44.135Z,4.00
2022-08-12T10:54:42.033Z,3.90
2022-08-12T10:55:42.004Z,3.30
2022-08-12T10:56:41.981Z,2.40
2022-08-12T10:58:13.523Z,2.30
2022-08-12T10:58:46.021Z,2.80
2022-08-12T11:00:30.176Z,2.50
2022-08-12T11:00:54.987Z,3.00
2022-08-12T11:04:18.084Z,3.40
2022-08-12T11:04:18.850Z,2.90
2022-08-12T11:04:31.297Z,2.90
2022-08-12T11:04:48.833Z,2.50
2022-08-12T11:07:06.647Z,3.00
2022-08-12T11:07:07.265Z,2.90
2022-08-12T11:08:34.897Z,3.60
2022-08-12T11:08:46.313Z,4.40
2022-08-12T11:09:59.560Z,3.30
2022-08-12T11:10:42.835Z,2.70
2022-08-12T11:12:36.832Z,3.40
2022-08-12T11:12:59.431Z,4.50
2022-08-12T11:13:46.516Z,2.30
2022-08-12T11:14:49.590Z,2.20
2022-08-12T11:16:19.509Z,2.30
2022-08-12T11:17:06.427Z,2.60
2022-08-12T11:17:52.701Z,2.20
2022-08-12T11:18:42.792Z,3.00
2022-08-12T11:19:41.729Z,3.00
2022-08-12T11:20:41.730Z,4.60
2022-08-12T11:21:58.288Z,3.00
2022-08-12T11:22:42.960Z,2.40
2022-08-12T11:23:42.681Z,2.30
2022-08-12T11:24:41.708Z,2.60
2022-08-12T11:25:57.760Z,3.50
2022-08-12T11:26:42.714Z,3.30
2022-08-12T11:27:41.819Z,2.40
2022-08-12T11:28:41.627Z,2.70
2022-08-12T11:30:01.562Z,3.60
2022-08-12T11:30:42.609Z,3.60
2022-08-12T11:32:02.068Z,2.50
2022-08-12T11:32:42.608Z,3.50
2022-08-12T11:34:06.624Z,3.20
2022-08-12T11:34:53.086Z,5.40
2022-08-12T11:35:43.064Z,2.40
2022-08-12T11:36:41.511Z,3.10
2022-08-12T11:37:58.283Z,4.20
2022-08-12T11:38:42.770Z,2.50
2022-08-12T11:40:42.694Z,3.60
2022-08-12T11:41:42.967Z,2.70
2022-08-12T11:42:47.185Z,3.60
2022-08-12T11:43:50.203Z,2.20
2022-08-12T11:44:43.383Z,3.90
2022-08-12T11:45:41.441Z,2.20
2022-08-12T11:46:42.431Z,3.00
2022-08-12T11:47:41.439Z,3.20
2022-08-12T11:48:51.435Z,3.50
2022-08-12T11:49:42.386Z,3.10
2022-08-12T11:50:42.388Z,2.70
2022-08-12T11:51:41.443Z,2.80
2022-08-12T11:52:56.601Z,3.80
2022-08-12T11:53:57.119Z,2.10
2022-08-12T11:54:42.339Z,4.20
2022-08-12T11:55:46.653Z,2.70
2022-08-12T11:56:42.896Z,4.20
2022-08-12T11:58:17.263Z,3.40
2022-08-12T12:02:02.503Z,2.50
2022-08-12T12:02:03.412Z,2.40
2022-08-12T12:02:42.516Z,2.00
2022-08-12T12:03:46.281Z,2.90
2022-08-12T12:04:42.294Z,2.20
2022-08-12T12:05:41.847Z,2.10
2022-08-12T12:06:41.372Z,3.40
2022-08-12T12:08:37.781Z,3.00
2022-08-12T12:08:45.820Z,3.10
2022-08-12T12:09:52.033Z,4.30
2022-08-12T12:10:42.164Z,2.30
2022-08-12T12:11:49.077Z,2.70
2022-08-12T12:12:49.909Z,2.40
2022-08-12T12:14:08.005Z,2.40
2022-08-12T12:14:42.119Z,1.60
2022-08-12T12:15:41.442Z,3.40
2022-08-12T12:16:48.131Z,1.60
2022-08-12T12:17:42.076Z,2.60
2022-08-12T12:18:41.064Z,1.80
2022-08-12T12:19:46.353Z,2.60
2022-08-12T12:20:42.074Z,2.60
2022-08-12T12:21:47.143Z,2.90
2022-08-12T12:22:43.576Z,1.50
2022-08-12T12:23:47.047Z,2.50
2022-08-12T12:24:42.001Z,1.80
2022-08-12T12:25:59.320Z,2.00
2022-08-12T12:26:42.002Z,2.60
2022-08-12T12:28:04.065Z,2.50
2022-08-12T12:28:41.955Z,2.60
2022-08-12T12:30:19.469Z,2.70
2022-08-12T12:30:54.735Z,1.80
2022-08-12T12:32:11.009Z,1.40
2022-08-12T12:32:42.222Z,1.70
2022-08-12T12:33:57.095Z,1.40
2022-08-12T12:35:14.183Z,1.50
2022-08-12T12:36:19.689Z,1.70
2022-08-12T12:36:41.885Z,1.60
2022-08-12T12:38:03.469Z,2.70
2022-08-12T12:38:41.889Z,4.20
2022-08-12T12:39:55.038Z,1.30
2022-08-12T12:40:41.828Z,1.80
2022-08-12T12:42:43.379Z,2.30
2022-08-12T12:42:56.821Z,1.30
2022-08-12T12:43:43.539Z,1.00
2022-08-12T12:44:50.816Z,2.00
2022-08-12T12:45:44.459Z,2.00
2022-08-12T12:46:40.762Z,1.50
2022-08-12T12:47:40.758Z,2.50
2022-08-12T12:48:44.323Z,1.20
2022-08-12T12:49:40.771Z,1.60
2022-08-12T12:50:45.350Z,1.60
2022-08-12T12:51:48.640Z,1.60
2022-08-12T12:52:42.756Z,1.40
2022-08-12T12:54:08.746Z,1.10
2022-08-12T12:54:41.695Z,1.10
2022-08-12T12:55:40.676Z,1.50
2022-08-12T12:56:40.719Z,0.80
2022-08-12T12:57:59.305Z,0.90
2022-08-12T12:58:43.583Z,1.00
2022-08-12T12:59:56.094Z,1.10
2022-08-12T13:00:41.631Z,0.90
2022-08-12T13:01:42.083Z,2.00
2022-08-12T13:02:40.631Z,2.10
2022-08-12T13:03:49.283Z,0.90
2022-08-12T13:04:41.575Z,0.70
2022-08-12T13:05:42.459Z,1.40
2022-08-12T13:06:40.581Z,1.30
2022-08-12T13:07:54.469Z,0.90
2022-08-12T13:08:41.524Z,2.40
2022-08-12T13:09:41.539Z,0.80
2022-08-12T13:10:50.188Z,1.10
2022-08-12T13:11:44.605Z,1.70
2022-08-12T13:12:40.561Z,3.60
2022-08-12T13:14:10.465Z,1.10
2022-08-12T13:14:41.493Z,2.30
2022-08-12T13:15:43.451Z,1.80
2022-08-12T13:16:44.081Z,1.20
2022-08-12T13:17:45.141Z,1.40
2022-08-12T13:18:41.451Z,1.50
2022-08-12T13:19:45.156Z,2.20
2022-08-12T13:20:43.057Z,1.30
2022-08-12T13:21:43.022Z,0.90
2022-08-12T13:22:41.627Z,1.40
2022-08-12T13:23:40.399Z,1.30
2022-08-12T13:24:40.370Z,0.70
2022-08-12T13:25:40.343Z,0.80